createdAt,value
2019-04-04T00:00:54.444Z,9.00
2019-04-04T00:03:24.083Z,9.01
2019-04-04T00:05:56.378Z,8.95
2019-04-04T00:08:25.334Z,8.85
2019-04-04T00:10:54.950Z,8.82
2019-04-04T00:13:24.589Z,8.88
2019-04-04T00:15:54.276Z,8.86
2019-04-04T00:18:25.502Z,8.64
2019-04-04T00:20:55.260Z,8.61
2019-04-04T00:23:24.866Z,8.75
2019-04-04T00:25:54.507Z,8.67
2019-04-04T00:28:24.122Z,8.70
2019-04-04T00:30:53.755Z,8.66
2019-04-04T00:33:23.816Z,8.78
2019-04-04T00:35:54.736Z,8.95
2019-04-04T00:38:24.362Z,8.77
2019-04-04T00:40:53.992Z,8.77
2019-04-04T00:43:23.603Z,8.71
2019-04-04T00:45:53.251Z,8.62
2019-04-04T00:48:22.925Z,8.70
2019-04-04T00:50:52.584Z,8.83
2019-04-04T00:53:22.200Z,8.65
2019-04-04T00:55:51.808Z,8.56
2019-04-04T00:58:21.509Z,8.51
2019-04-04T01:00:51.135Z,8.44
2019-04-04T01:03:20.780Z,8.49
2019-04-04T01:05:50.468Z,8.41
2019-04-04T01:08:20.109Z,8.41
2019-04-04T01:10:50.220Z,8.44
2019-04-04T01:13:22.956Z,8.56
2019-04-04T01:15:51.258Z,8.81
2019-04-04T01:18:20.908Z,8.66
2019-04-04T01:20:51.247Z,8.52
2019-04-04T01:23:21.006Z,8.86
2019-04-04T01:25:50.654Z,8.59
2019-04-04T01:28:20.267Z,8.48
2019-04-04T01:30:49.898Z,8.55
2019-04-04T01:33:19.947Z,8.40
2019-04-04T01:35:50.141Z,8.29
2019-04-04T01:38:21.472Z,8.23
2019-04-04T01:40:51.111Z,8.28
2019-04-04T01:43:20.721Z,8.30
2019-04-04T01:45:50.332Z,8.29
2019-04-04T01:48:20.050Z,8.19
2019-04-04T01:50:49.659Z,7.77
2019-04-04T01:53:19.304Z,7.77
2019-04-04T01:55:48.916Z,7.80
2019-04-04T01:58:18.562Z,7.89
2019-04-04T02:00:48.180Z,8.15
2019-04-04T02:03:17.826Z,8.01
2019-04-04T02:05:47.436Z,8.03
2019-04-04T02:08:17.086Z,8.08
2019-04-04T02:10:46.774Z,8.14
2019-04-04T02:13:16.435Z,8.13
2019-04-04T02:15:46.047Z,8.11
2019-04-04T02:18:15.668Z,8.06
2019-04-04T02:20:45.307Z,8.13
2019-04-04T02:23:14.922Z,8.50
2019-04-04T02:25:44.559Z,8.51
2019-04-04T02:28:14.172Z,8.48
2019-04-04T02:30:48.167Z,8.36
2019-04-04T02:33:15.154Z,8.31
2019-04-04T02:35:44.796Z,8.07
2019-04-04T02:38:14.411Z,8.14
2019-04-04T02:40:44.133Z,8.13
2019-04-04T02:43:13.755Z,8.14
2019-04-04T02:45:43.363Z,8.19
2019-04-04T02:48:13.001Z,8.16
2019-04-04T02:50:42.621Z,8.12
2019-04-04T02:53:12.258Z,8.11
2019-04-04T02:55:41.877Z,8.12
2019-04-04T02:58:14.979Z,8.14
2019-04-04T03:00:42.855Z,8.05
2019-04-04T03:03:12.495Z,7.98
2019-04-04T03:05:42.244Z,7.98
2019-04-04T03:08:12.024Z,8.13
2019-04-04T03:10:41.807Z,8.14
2019-04-04T03:13:11.656Z,8.09
2019-04-04T03:15:44.559Z,8.15
2019-04-04T03:18:12.710Z,8.03
2019-04-04T03:20:42.321Z,8.11
2019-04-04T03:23:11.954Z,8.13
2019-04-04T03:25:41.570Z,8.17
2019-04-04T03:28:11.217Z,8.18
2019-04-04T03:30:40.913Z,8.22
2019-04-04T03:33:10.557Z,8.17
2019-04-04T03:35:40.157Z,8.13
2019-04-04T03:38:10.698Z,8.04
2019-04-04T03:40:41.981Z,8.12
2019-04-04T03:43:15.860Z,8.11
2019-04-04T03:45:43.232Z,8.15
2019-04-04T03:48:17.028Z,8.20
2019-04-04T03:50:44.209Z,8.29
2019-04-04T03:53:16.267Z,8.23
2019-04-04T03:55:45.195Z,8.22
2019-04-04T03:58:14.801Z,8.14
2019-04-04T04:00:44.438Z,8.11
2019-04-04T04:03:14.062Z,8.13
2019-04-04T04:05:43.786Z,8.19
2019-04-04T04:08:13.402Z,8.16
2019-04-04T04:10:43.013Z,8.15
2019-04-04T04:13:16.141Z,8.12
2019-04-04T04:15:44.066Z,8.06
2019-04-04T04:18:13.719Z,8.02
2019-04-04T04:20:43.330Z,7.90
2019-04-04T04:23:12.976Z,7.80
2019-04-04T04:25:44.246Z,7.88
2019-04-04T04:28:14.109Z,7.86
2019-04-04T04:30:43.911Z,7.99
2019-04-04T04:33:13.643Z,7.90
2019-04-04T04:35:43.252Z,7.86
2019-04-04T04:38:12.960Z,7.75
2019-04-04T04:40:46.916Z,7.83
2019-04-04T04:43:15.788Z,7.75
2019-04-04T04:45:45.315Z,7.90
2019-04-04T04:48:14.946Z,7.81
2019-04-04T04:50:44.565Z,7.83
2019-04-04T04:53:16.217Z,7.81
2019-04-04T04:55:45.635Z,7.76
2019-04-04T04:58:15.247Z,7.80
2019-04-04T05:00:45.155Z,7.87
2019-04-04T05:03:16.228Z,7.83
2019-04-04T05:05:45.869Z,7.75
2019-04-04T05:08:15.486Z,7.77
2019-04-04T05:10:45.879Z,7.72
2019-04-04T05:13:15.917Z,7.73
2019-04-04T05:15:45.563Z,7.74
2019-04-04T05:18:16.437Z,7.77
2019-04-04T05:20:46.692Z,7.84
2019-04-04T05:23:16.388Z,7.90
2019-04-04T05:25:53.621Z,7.94
2019-04-04T05:28:17.394Z,8.00
2019-04-04T05:30:47.778Z,8.00
2019-04-04T05:33:17.630Z,8.00
2019-04-04T05:35:47.310Z,7.96
2019-04-04T05:38:16.950Z,7.96
2019-04-04T05:40:46.571Z,7.98
2019-04-04T05:43:16.210Z,7.91
2019-04-04T05:45:45.971Z,7.88
2019-04-04T05:48:15.683Z,7.92
2019-04-04T05:50:45.314Z,7.87
2019-04-04T05:53:15.003Z,7.83
2019-04-04T05:55:44.648Z,7.91
2019-04-04T05:58:14.233Z,7.92
2019-04-04T06:00:45.517Z,7.78
2019-04-04T06:03:15.816Z,7.79
2019-04-04T06:05:45.749Z,7.81
2019-04-04T06:08:15.394Z,7.77
2019-04-04T06:10:45.078Z,7.90
2019-04-04T06:13:14.702Z,7.86
2019-04-04T06:15:44.413Z,7.75
2019-04-04T06:18:14.097Z,7.73
2019-04-04T06:20:44.118Z,7.60
2019-04-04T06:23:13.731Z,7.65
2019-04-04T06:25:43.420Z,7.70
2019-04-04T06:28:13.066Z,7.58
2019-04-04T06:30:43.793Z,7.64
2019-04-04T06:33:13.605Z,7.64
2019-04-04T06:35:43.235Z,7.58
2019-04-04T06:38:14.744Z,7.55
2019-04-04T06:40:44.357Z,7.59
2019-04-04T06:43:14.001Z,7.59
2019-04-04T06:45:46.287Z,7.53
2019-04-04T06:48:14.982Z,7.61
2019-04-04T06:50:44.607Z,7.63
2019-04-04T06:53:14.284Z,7.64
2019-04-04T06:55:43.905Z,7.65
2019-04-04T06:58:13.589Z,7.64
2019-04-04T07:00:43.682Z,7.67
2019-04-04T07:03:13.306Z,7.65
2019-04-04T07:05:42.955Z,7.67
2019-04-04T07:08:14.807Z,7.51
2019-04-04T07:10:43.951Z,7.53
2019-04-04T07:13:21.629Z,7.57
2019-04-04T07:15:46.944Z,7.49
2019-04-04T07:18:16.726Z,7.49
2019-04-04T07:20:48.360Z,7.48
2019-04-04T07:23:17.793Z,7.51
2019-04-04T07:25:47.440Z,7.47
2019-04-04T07:28:19.088Z,7.50
2019-04-04T07:30:48.426Z,7.46
2019-04-04T07:33:21.153Z,7.53
2019-04-04T07:35:49.624Z,7.48
2019-04-04T07:38:19.495Z,7.52
2019-04-04T07:40:49.107Z,7.57
2019-04-04T07:43:19.365Z,7.54
2019-04-04T07:45:49.658Z,7.53
2019-04-04T07:48:19.371Z,7.55
2019-04-04T07:50:51.308Z,7.57
2019-04-04T07:53:20.443Z,7.41
2019-04-04T07:55:50.063Z,7.49
2019-04-04T07:58:19.681Z,7.52
2019-04-04T08:00:49.332Z,7.57
2019-04-04T08:03:18.959Z,7.49
2019-04-04T08:05:48.669Z,7.34
2019-04-04T08:08:18.364Z,7.44
2019-04-04T08:10:48.083Z,7.44
2019-04-04T08:13:17.714Z,7.44
2019-04-04T08:15:47.435Z,7.42
2019-04-04T08:18:17.054Z,7.39
2019-04-04T08:20:46.705Z,7.48
2019-04-04T08:23:16.327Z,7.42
2019-04-04T08:25:45.991Z,7.50
2019-04-04T08:28:15.607Z,7.62
2019-04-04T08:30:45.218Z,7.68
2019-04-04T08:33:14.938Z,7.73
2019-04-04T08:35:44.558Z,7.82
2019-04-04T08:38:14.197Z,7.72
2019-04-04T08:40:46.112Z,7.77
2019-04-04T08:43:15.259Z,7.82
2019-04-04T08:45:44.953Z,7.77
2019-04-04T08:48:14.597Z,7.81
2019-04-04T08:50:44.218Z,7.86
2019-04-04T08:53:13.929Z,7.95
2019-04-04T08:55:43.552Z,7.95
2019-04-04T08:58:13.220Z,7.91
2019-04-04T09:00:43.273Z,7.85
2019-04-04T09:03:12.887Z,7.86
2019-04-04T09:05:42.541Z,7.87
2019-04-04T09:08:12.231Z,7.89
2019-04-04T09:10:41.876Z,7.89
2019-04-04T09:13:11.493Z,7.92
2019-04-04T09:15:41.143Z,7.92
2019-04-04T09:18:10.762Z,7.93
2019-04-04T09:20:40.418Z,8.04
2019-04-04T09:23:10.109Z,7.98
2019-04-04T09:25:40.989Z,8.03
2019-04-04T09:28:10.757Z,8.04
2019-04-04T09:30:40.378Z,8.03
2019-04-04T09:33:10.024Z,7.99
2019-04-04T09:35:39.637Z,8.00
2019-04-04T09:38:09.286Z,7.85
2019-04-04T09:40:38.981Z,7.91
2019-04-04T09:43:08.634Z,7.93
2019-04-04T09:45:38.244Z,7.92
2019-04-04T09:48:08.175Z,7.93
2019-04-04T09:50:37.785Z,7.99
2019-04-04T09:53:07.402Z,8.08
2019-04-04T09:55:37.045Z,8.13
2019-04-04T09:58:06.746Z,8.11
2019-04-04T10:00:36.462Z,8.09
2019-04-04T10:03:06.287Z,8.09
2019-04-04T10:05:36.635Z,7.98
2019-04-04T10:08:06.767Z,8.08
2019-04-04T10:10:36.415Z,8.17
2019-04-04T10:13:06.171Z,8.13
2019-04-04T10:15:35.845Z,8.12
2019-04-04T10:18:05.601Z,8.02
2019-04-04T10:20:35.271Z,8.02
2019-04-04T10:23:05.085Z,8.02
2019-04-04T10:25:34.771Z,7.98
2019-04-04T10:28:04.555Z,8.13
2019-04-04T10:30:34.173Z,7.96
2019-04-04T10:33:03.884Z,7.96
2019-04-04T10:35:33.588Z,8.02
2019-04-04T10:38:03.330Z,8.10
2019-04-04T10:40:32.945Z,8.01
2019-04-04T10:43:02.634Z,8.03
2019-04-04T10:45:32.350Z,8.08
2019-04-04T10:48:01.971Z,8.20
2019-04-04T10:50:31.615Z,8.25
2019-04-04T10:53:01.234Z,8.25
2019-04-04T10:55:30.881Z,8.28
2019-04-04T10:58:00.504Z,8.24
2019-04-04T11:00:30.151Z,8.28
2019-04-04T11:02:59.845Z,8.31
2019-04-04T11:05:29.503Z,8.28
2019-04-04T11:07:59.118Z,8.23
2019-04-04T11:10:28.809Z,8.29
2019-04-04T11:12:58.449Z,8.46
2019-04-04T11:15:28.068Z,8.44
2019-04-04T11:17:57.709Z,8.40
2019-04-04T11:20:27.332Z,8.46
2019-04-04T11:22:56.980Z,8.41
2019-04-04T11:25:26.603Z,8.36
2019-04-04T11:27:56.250Z,8.35
2019-04-04T11:30:25.863Z,8.38
2019-04-04T11:32:55.574Z,8.32
2019-04-04T11:35:25.204Z,8.11
2019-04-04T11:37:54.859Z,8.12
2019-04-04T11:40:24.471Z,8.16
2019-04-04T11:42:54.117Z,8.17
2019-04-04T11:45:24.317Z,8.16
2019-04-04T11:47:54.029Z,8.20
2019-04-04T11:50:23.805Z,8.28
2019-04-04T11:52:53.421Z,8.19
2019-04-04T11:55:23.063Z,8.28
2019-04-04T11:57:52.671Z,8.30
2019-04-04T12:00:29.817Z,8.38
2019-04-04T12:02:59.428Z,8.18
2019-04-04T12:05:29.067Z,8.28
2019-04-04T12:07:58.683Z,8.30
2019-04-04T12:10:28.329Z,8.34
2019-04-04T12:12:58.685Z,8.28
2019-04-04T12:15:28.590Z,8.28
2019-04-04T12:17:58.238Z,8.22
2019-04-04T12:20:27.857Z,8.30
2019-04-04T12:22:57.505Z,8.24
2019-04-04T12:25:27.195Z,8.34
2019-04-04T12:27:56.833Z,8.32
2019-04-04T12:30:26.456Z,8.37
2019-04-04T12:32:56.164Z,8.31
2019-04-04T12:35:25.779Z,8.29
2019-04-04T12:37:55.428Z,8.35
2019-04-04T12:40:25.040Z,8.27
2019-04-04T12:42:54.685Z,8.25
2019-04-04T12:45:24.537Z,8.27
2019-04-04T12:47:54.172Z,8.24
2019-04-04T12:50:23.789Z,8.19
2019-04-04T12:52:53.435Z,8.09
2019-04-04T12:55:23.052Z,8.03
2019-04-04T12:57:54.319Z,8.09
2019-04-04T13:00:24.255Z,8.13
2019-04-04T13:02:54.226Z,8.18
2019-04-04T13:05:24.057Z,8.14
2019-04-04T13:07:53.830Z,8.14
2019-04-04T13:10:32.860Z,8.19
2019-04-04T13:12:55.475Z,8.31
2019-04-04T13:15:25.458Z,8.24
2019-04-04T13:17:55.410Z,8.18
2019-04-04T13:20:25.281Z,8.21
2019-04-04T13:22:55.498Z,8.20
2019-04-04T13:25:26.726Z,8.15
2019-04-04T13:27:56.442Z,8.11
2019-04-04T13:30:26.154Z,8.11
2019-04-04T13:32:55.768Z,8.05
2019-04-04T13:35:25.471Z,8.23
2019-04-04T13:37:55.089Z,8.11
2019-04-04T13:40:24.849Z,8.15
2019-04-04T13:42:54.487Z,8.21
2019-04-04T13:45:25.267Z,7.83
2019-04-04T13:47:55.486Z,7.93
2019-04-04T13:50:25.176Z,7.97
2019-04-04T13:52:54.817Z,8.05
2019-04-04T13:55:25.136Z,8.03
2019-04-04T13:57:55.785Z,8.12
2019-04-04T14:00:25.472Z,8.28
2019-04-04T14:02:55.109Z,8.28
2019-04-04T14:05:24.726Z,8.19
2019-04-04T14:07:54.446Z,8.21
2019-04-04T14:10:24.184Z,7.95
2019-04-04T14:12:53.801Z,8.09
2019-04-04T14:15:23.447Z,8.04
2019-04-04T14:17:53.057Z,8.06
2019-04-04T14:20:22.698Z,8.06
2019-04-04T14:22:52.313Z,8.23
2019-04-04T14:25:21.957Z,8.18
2019-04-04T14:27:51.569Z,8.31
2019-04-04T14:30:21.517Z,8.22
2019-04-04T14:32:51.137Z,8.33
2019-04-04T14:35:20.777Z,8.42
2019-04-04T14:37:50.399Z,8.45
2019-04-04T14:40:20.053Z,8.33
2019-04-04T14:42:49.665Z,8.41
2019-04-04T14:45:19.320Z,8.44
2019-04-04T14:47:48.942Z,8.54
2019-04-04T14:50:18.552Z,8.45
2019-04-04T14:52:51.215Z,8.26
2019-04-04T14:55:19.536Z,8.16
2019-04-04T14:57:49.180Z,8.14
2019-04-04T15:00:20.578Z,8.11
2019-04-04T15:02:50.230Z,8.21
2019-04-04T15:05:19.880Z,8.33
2019-04-04T15:07:49.589Z,8.39
2019-04-04T15:10:19.210Z,8.45
2019-04-04T15:12:48.850Z,8.47
2019-04-04T15:15:18.539Z,8.46
2019-04-04T15:17:48.181Z,8.41
2019-04-04T15:20:18.482Z,8.54
2019-04-04T15:22:48.150Z,8.54
2019-04-04T15:25:17.766Z,8.58
2019-04-04T15:27:47.408Z,8.48
2019-04-04T15:30:17.425Z,8.43
2019-04-04T15:32:47.044Z,8.35
2019-04-04T15:35:16.682Z,8.34
2019-04-04T15:37:46.373Z,8.51
2019-04-04T15:40:16.221Z,8.68
2019-04-04T15:42:45.837Z,8.69
2019-04-04T15:45:15.691Z,8.62
2019-04-04T15:47:45.305Z,8.62
2019-04-04T15:50:15.014Z,8.64
2019-04-04T15:52:44.631Z,8.78
2019-04-04T15:55:14.725Z,8.90
2019-04-04T15:57:44.338Z,9.17
2019-04-04T16:00:14.457Z,9.47
2019-04-04T16:02:44.103Z,9.48
2019-04-04T16:05:13.929Z,9.68
2019-04-04T16:07:43.639Z,9.75
2019-04-04T16:10:13.598Z,9.64
2019-04-04T16:12:43.238Z,9.51
2019-04-04T16:15:13.063Z,9.36
2019-04-04T16:17:42.704Z,9.20
2019-04-04T16:20:14.027Z,9.17
2019-04-04T16:22:43.666Z,9.01
2019-04-04T16:25:13.588Z,8.94
2019-04-04T16:27:43.235Z,8.98
2019-04-04T16:30:15.070Z,8.96
2019-04-04T16:32:44.751Z,8.94
2019-04-04T16:35:14.566Z,8.91
2019-04-04T16:37:44.192Z,8.98
2019-04-04T16:40:14.304Z,8.77
2019-04-04T16:42:43.919Z,8.65
2019-04-04T16:45:13.770Z,8.57
2019-04-04T16:47:43.386Z,8.51
2019-04-04T16:50:14.532Z,8.50
2019-04-04T16:52:44.210Z,8.35
2019-04-04T16:55:14.369Z,8.33
2019-04-04T16:57:43.989Z,8.37
2019-04-04T17:00:15.303Z,8.35
2019-04-04T17:02:44.958Z,8.37
2019-04-04T17:05:14.878Z,8.30
2019-04-04T17:07:44.519Z,8.39
2019-04-04T17:10:15.184Z,8.29
2019-04-04T17:12:44.823Z,8.30
2019-04-04T17:15:14.775Z,8.25
2019-04-04T17:17:44.414Z,8.26
2019-04-04T17:20:14.274Z,8.22
2019-04-04T17:22:43.982Z,8.25
2019-04-04T17:25:15.976Z,8.17
2019-04-04T17:27:45.119Z,8.01
2019-04-04T17:30:16.025Z,7.87
2019-04-04T17:32:48.450Z,7.90
2019-04-04T17:35:17.189Z,7.92
2019-04-04T17:37:46.942Z,7.92
2019-04-04T17:40:16.992Z,7.85
2019-04-04T17:42:46.726Z,7.97
2019-04-04T17:45:17.381Z,7.91
2019-04-04T17:47:47.533Z,7.94
2019-04-04T17:50:20.234Z,7.85
2019-04-04T17:52:49.942Z,7.91
2019-04-04T17:55:19.895Z,7.86
2019-04-04T17:57:50.045Z,7.85
2019-04-04T18:00:21.407Z,7.77
2019-04-04T18:02:51.085Z,7.72
2019-04-04T18:05:21.389Z,7.71
2019-04-04T18:07:51.010Z,7.80
2019-04-04T18:10:20.836Z,7.79
2019-04-04T18:12:50.474Z,7.74
2019-04-04T18:15:20.230Z,7.75
2019-04-04T18:17:49.871Z,7.77
2019-04-04T18:20:19.899Z,7.75
2019-04-04T18:22:49.540Z,7.60
2019-04-04T18:25:19.158Z,7.69
2019-04-04T18:27:48.811Z,7.51
2019-04-04T18:30:19.770Z,7.58
2019-04-04T18:32:49.411Z,7.64
2019-04-04T18:35:19.024Z,7.61
2019-04-04T18:37:48.774Z,7.62
2019-04-04T18:40:18.529Z,7.69
2019-04-04T18:42:53.583Z,7.60
2019-04-04T18:45:19.737Z,7.61
2019-04-04T18:47:49.350Z,7.51
2019-04-04T18:50:19.202Z,7.50
2019-04-04T18:52:48.814Z,7.55
2019-04-04T18:55:19.903Z,7.56
2019-04-04T18:57:49.855Z,7.42
2019-04-04T19:00:20.297Z,7.48
2019-04-04T19:02:49.990Z,7.53
2019-04-04T19:05:19.834Z,7.48
2019-04-04T19:07:49.589Z,7.41
2019-04-04T19:10:19.767Z,7.42
2019-04-04T19:12:49.381Z,7.40
2019-04-04T19:15:19.127Z,7.34
2019-04-04T19:17:48.776Z,7.29
2019-04-04T19:20:18.477Z,7.31
2019-04-04T19:22:48.118Z,7.36
2019-04-04T19:25:17.874Z,7.37
2019-04-04T19:27:47.581Z,7.38
2019-04-04T19:30:18.477Z,7.41
2019-04-04T19:32:48.454Z,7.35
2019-04-04T19:35:18.207Z,7.35
2019-04-04T19:37:59.581Z,7.31
2019-04-04T19:40:19.396Z,7.38
2019-04-04T19:42:49.036Z,7.27
2019-04-04T19:45:21.304Z,7.17
2019-04-04T19:47:50.639Z,7.22
2019-04-04T19:50:20.317Z,7.28
2019-04-04T19:52:49.977Z,7.18
2019-04-04T19:55:19.593Z,7.11
2019-04-04T19:57:49.205Z,7.11
2019-04-04T20:00:19.750Z,6.99
2019-04-04T20:02:49.359Z,7.01
2019-04-04T20:05:19.137Z,6.70
2019-04-04T20:07:48.769Z,6.86
2019-04-04T20:10:18.551Z,6.94
2019-04-04T20:12:48.159Z,6.99
2019-04-04T20:15:18.314Z,6.99
2019-04-04T20:17:47.919Z,7.05
2019-04-04T20:20:17.659Z,6.92
2019-04-04T20:22:47.272Z,6.94
2019-04-04T20:25:16.899Z,6.96
2019-04-04T20:27:54.492Z,7.01
2019-04-04T20:30:21.000Z,6.96
2019-04-04T20:32:50.644Z,6.98
2019-04-04T20:35:20.264Z,7.01
2019-04-04T20:37:49.975Z,6.92
2019-04-04T20:40:19.593Z,6.85
2019-04-04T20:42:49.232Z,6.74
2019-04-04T20:45:18.852Z,6.64
2019-04-04T20:47:48.662Z,6.77
2019-04-04T20:50:18.270Z,6.79
2019-04-04T20:52:47.916Z,6.89
2019-04-04T20:55:17.612Z,6.91
2019-04-04T20:57:47.277Z,6.90
2019-04-04T21:00:17.140Z,6.80
2019-04-04T21:02:46.756Z,6.84
2019-04-04T21:05:16.398Z,6.83
2019-04-04T21:07:46.021Z,6.89
2019-04-04T21:10:16.066Z,6.84
2019-04-04T21:12:45.680Z,6.79
2019-04-04T21:15:15.530Z,6.77
2019-04-04T21:17:45.146Z,6.71
2019-04-04T21:20:14.927Z,6.73
2019-04-04T21:22:44.544Z,6.80
2019-04-04T21:25:14.316Z,6.79
2019-04-04T21:27:43.929Z,6.77
2019-04-04T21:30:13.926Z,6.80
2019-04-04T21:32:43.581Z,6.82
2019-04-04T21:35:13.197Z,6.84
2019-04-04T21:37:42.837Z,6.85
2019-04-04T21:40:12.761Z,6.77
2019-04-04T21:42:42.399Z,6.89
2019-04-04T21:45:15.050Z,6.90
2019-04-04T21:47:43.592Z,6.89
2019-04-04T21:50:14.144Z,6.85
2019-04-04T21:52:43.777Z,6.92
2019-04-04T21:55:13.397Z,6.88
2019-04-04T21:57:43.014Z,6.88
2019-04-04T22:00:13.363Z,6.84
2019-04-04T22:02:42.978Z,6.86
2019-04-04T22:05:12.931Z,6.91
2019-04-04T22:07:42.550Z,6.88
2019-04-04T22:10:12.628Z,6.77
2019-04-04T22:12:42.299Z,6.77
2019-04-04T22:15:12.114Z,6.81
2019-04-04T22:17:41.717Z,6.77
2019-04-04T22:20:11.710Z,6.77
2019-04-04T22:22:41.327Z,6.71
2019-04-04T22:25:11.157Z,6.69
2019-04-04T22:27:40.799Z,6.69
2019-04-04T22:30:11.525Z,6.75
2019-04-04T22:32:41.169Z,6.70
2019-04-04T22:35:11.103Z,6.72
2019-04-04T22:37:40.747Z,6.74
2019-04-04T22:40:11.822Z,6.70
2019-04-04T22:42:41.483Z,6.73
2019-04-04T22:45:12.506Z,6.78
2019-04-04T22:47:42.189Z,6.66
2019-04-04T22:50:11.968Z,6.70
2019-04-04T22:52:41.586Z,6.76
2019-04-04T22:55:11.373Z,6.71
2019-04-04T22:57:40.989Z,6.71
2019-04-04T23:00:14.145Z,6.73
2019-04-04T23:02:43.758Z,6.79
2019-04-04T23:05:13.645Z,6.81
2019-04-04T23:07:43.325Z,6.73
2019-04-04T23:10:13.389Z,6.70
2019-04-04T23:12:43.001Z,6.66
2019-04-04T23:15:12.925Z,6.67
2019-04-04T23:17:45.332Z,6.76
2019-04-04T23:20:14.114Z,6.83
2019-04-04T23:22:52.732Z,6.68
2019-04-04T23:25:15.094Z,6.76
2019-04-04T23:27:44.732Z,6.79
2019-04-04T23:30:15.057Z,6.70
2019-04-04T23:32:44.692Z,6.73
2019-04-04T23:35:16.662Z,6.64
2019-04-04T23:37:46.004Z,6.67
2019-04-04T23:40:15.751Z,6.68
2019-04-04T23:42:45.358Z,6.64
2019-04-04T23:45:15.001Z,6.65
2019-04-04T23:47:44.613Z,6.43
2019-04-04T23:50:15.365Z,6.38
2019-04-04T23:52:45.555Z,6.47
2019-04-04T23:55:15.197Z,6.40
2019-04-04T23:57:44.808Z,6.50
